Du har inga inställningar för hoppväder.nu

Hoppväder.nu

Senast uppdaterat 08:19

UTC-tid

2020-04-08 kl. 06:19


Sol och måne

Solen går upp 5:49 och går ner 20:54 (beräknade cirkatider)
Nästa fullmåne blir om 29 dagar (2020-05-07)

METAR

ESSA (Arlanda, Stockholm)
(29 minuter sedan)
ESSA 080550Z 22008KT CAVOK 04/00 Q1025 RWY 01L CLEAR AND DRY BA GOOD RWY 01R CLEAR AND DRY BA GOOD RWY 08 CLEAR AND DRY BA GOOD NOSIG=



ESSD (Borlänge)
(29 minuter sedan)
ESSD 080550Z 24011KT CAVOK 05/M01 Q1021=



EFMA (Mariehamn)
(29 minuter sedan)
EFMA 080550Z AUTO 20008KT 170V230 CAVOK 05/03 Q1024=



ESOW (Västerås)
(29 minuter sedan)
ESOW 080550Z 21010KT CAVOK 05/01 Q1025=






TAF

ESSA (Arlanda, Stockholm)
(49 minuter sedan)
ESSA 080530Z 0806/0906 22008KT CAVOK BECMG 0808/0810 24015G25KT BECMG 0821/0824 30008KT=



ESSD (Borlänge)
(49 minuter sedan)
ESSD 080530Z 0806/0815 22006KT CAVOK BECMG 0806/0808 24015G25KT=



EFMA (Mariehamn)
(57 minuter sedan)
EFMA 080522Z 0806/0815 20004KT CAVOK BECMG 0807/0809 21014KT TEMPO 0810/0815 21015G25KT=



ESOW (Västerås)
(49 minuter sedan)
ESOW 080530Z 0806/0815 22008KT CAVOK BECMG 0807/0810 24015G25KT=





Kodnycklar till TAF och METAR






LHP

(Gryttjom är område se34e i Delområde 1)

Översikt

ÖVERSIKT FÖR OMRÅDE se3 UTFÄRDAD 080342

GÄLLANDE DEN 8 APRIL 2020 MELLAN 04 OCH 12 UTC


Väderöversikt

En högtrycksrygg över södra Sverige rör sig österut. Frisk sydvästlig luftström över Svealand.

Sikt under 5 kilometer eller molnbas under 1000 fot
04-06UTC: Område se32 och se34


Måttlig eller svår isbildning
Väntas inte förekomma under perioden

Måttlig eller svår turbulens
08-12UTC: Hela området utom se33


Delområde 1

PROGNOS FÖR OMRÅDE se34 UTFÄRDAD 080342
GÄLLANDE DEN 8 APRIL 2020 MELLAN 04 OCH 12 UTC

Måttlig eller svår turbulens
04-08UTC: I hela området: Väntas inte förekomma under perioden
08-12UTC: I hela området: måttlig turbulens SFC - 3000ft.

Måttlig eller svår isbildning
04-12UTC: I hela området: Väntas inte förekomma under perioden

Sikt/Väder/Moln
04-06UTC: Område se34b,se34f: Sikt <1.5km - >8km i höga dimbankar. Molnbas >2000ft.

04-12UTC: Område se34a,se34e,se34d,se34c: Sikt >8km. Molnbas >2000ft.

06-12UTC: Område se34b,se34f: Sikt >8km. Molnbas >2000ft.


Molnöversida
04-12UTC: I hela området: Ingen prognos

CB/TCU Moln
04-12UTC: I hela området: Väntas inte förekomma under perioden

Nollgradersisoterm
04-10UTC: Noll grader FL050 - FL070.
10-12UTC: Noll grader 4000ft - FL070.

Vind vid marken
04-06UTC: Område se34c: SV/0-12 knop, byar upp till 29 knop.
Område se34e: SV/4-10 knop.
Område se34d: SV/1-11 knop, byar upp till 27 knop.
Område se34f: SV/4-8 knop, byar upp till 15 knop.
Område se34a: S-SV/3-18 knop, byar upp till 21 knop.
Område se34b: SV/3-15 knop, byar upp till 19 knop.

06-08UTC: Område se34b: SV/5-18 knop, byar upp till 22 knop.
Område se34f: SV/6-11 knop, byar upp till 21 knop.
Område se34a: S-SV/6-19 knop, byar upp till 24 knop.
Område se34c: SV/1-14 knop, byar upp till 32 knop.
Område se34e: SV/6-12 knop, byar upp till 21 knop.
Område se34d: SV-V/6-13 knop, byar upp till 29 knop.

08-10UTC: Område se34a: SV/10-20 knop, byar upp till 28 knop.
Område se34d: SV-V/9-14 knop, byar upp till 31 knop.
Område se34c: SV/8-16 knop, byar upp till 33 knop.
Område se34e: SV/8-14 knop, byar upp till 27 knop.
Område se34b: SV/9-18 knop, byar upp till 28 knop.
Område se34f: SV/8-14 knop, byar upp till 25 knop.

10-12UTC: Område se34b: SV/10-21 knop, byar upp till 32 knop.
Område se34a: SV/11-21 knop, byar upp till 31 knop.
Område se34f: SV/10-16 knop, byar upp till 30 knop.
Område se34c: SV/9-17 knop, byar upp till 31 knop.
Område se34d: SV/10-16 knop, byar upp till 31 knop.
Område se34e: SV/10-17 knop, byar upp till 30 knop.


Genomsnittlig vind och temperatur för området
2000ft:
04-06UTC: 250/33kt +5.
06-08UTC: 260/33kt +4.
08-10UTC: 250/30kt +3.
10-12UTC: 240/28kt +4.

FL50:
04-08UTC: 260/32kt +1.
08-10UTC: 260/34kt +1.
10-12UTC: 260/39kt +1.

FL100:
04-06UTC: 270/35kt -6.
06-08UTC: 270/37kt -6.
08-10UTC: 260/38kt -6.
10-12UTC: 260/40kt -7.

Lägsta QNH
1013 hPa.

OBS! endast utbredd måttlig eller svår isbildning och turbulens prognostiseras i LLF.
Avsaknad av isbildning och turbulens i prognosen utesluter inte förekomst av lätt isbildning och turbulens.
För indikation på lätt isbildning, var vänlig kontrollera om prognosen för molntopp ligger högre än nollgradersisotermen.
Förekomst av TCU eller CB medför alltid en risk för måttlig eller svår isbildning och turbulens även om det inte framgår explicit av prognosen.







Spotting

Hur fungerar spotthjälpen och Vindkartan?

Markvind är ca 3-6 m/s med byar på 11 m/s.
Vind på 600 m ca 17 m/s.
Vind på 1500 m ca 16 m/s.
Vind på 3000 m ca 19 m/s.
SE-GEE flyger ca 26 m/s över marken på finalen.
Du driver ca 857 m bakåt i frifall. (1142 m)
Lämplig spot är 22 sekunder eller 577 m efter gropen.
(33 s eller 866 m)
För små grupper eller ensamhoppare bör man vänta 6-8 sekunder mellan grupperna.
För större grupper bör man vänta 11-14 sekunder mellan grupperna.


Vindkartan

Senast uppdaterad 08:19




All data kommer från LFV.se